Time;durP1;ratioP1;P1;durP2;ratioP2;P2;SDS_P1;SDS_P2;PMS_P1;PMS_P2;Temp;Humidity;BMP_temperature;BMP_pressure;BME280_temperature;BME280_humidity;BME280_pressure;Samples;Min_cycle;Max_cycle;Signal;HPM_P1;HPM_P2
2024/01/01 00:00:57;;;;;;;;;;;;;;;1.93;61.58;94244.53;5011041;28;20393;-66
2024/01/01 00:03:22;;;;;;;;;;;;;;;1.98;61.35;94243.06;5015701;28;20448;-66
2024/01/01 00:05:47;;;;;;;;;;;;;;;2.28;61.70;94250.56;5015206;28;20012;-66
2024/01/01 00:08:13;;;;;;;;;;;;;;;2.23;60.92;94248.44;5016559;28;19928;-65
2024/01/01 00:10:38;;;;;;;;;;;;;;;2.14;60.88;94254.63;5016731;28;19932;-66
2024/01/01 00:13:03;;;;;;;;;;;;;;;2.56;59.67;94246.84;5016823;28;20266;-66
2024/01/01 00:15:28;;;;;;;;;;;;;;;2.08;61.18;94250.03;5014878;28;19929;-66
2024/01/01 00:17:54;;;;;;;;;;;;;;;1.99;62.10;94247.38;5016990;28;19925;-66
2024/01/01 00:20:20;;;;;;;;;;;;;;;2.17;61.62;94240.38;5013529;28;19917;-66
2024/01/01 00:22:47;;;;;;;;;;;;;;;1.70;62.69;94240.66;5016310;28;19928;-65
2024/01/01 00:25:12;;;;;;;;;;;;;;;1.90;62.22;94245.66;5017047;28;19925;-63
2024/01/01 00:27:37;;;;;;;;;;;;;;;2.14;61.11;94246.75;5017157;28;20414;-62
2024/01/01 00:30:03;;;;;;;;;;;;;;;2.10;61.43;94245.41;5016760;28;20418;-66
2024/01/01 00:32:28;;;;;;;;;;;;;;;1.88;61.64;94253.69;5016343;28;19928;-63
2024/01/01 00:34:53;;;;;;;;;;;;;;;1.38;64.23;94239.47;5017355;28;20032;-64
2024/01/01 00:37:18;;;;;;;;;;;;;;;1.71;63.50;94237.03;5016299;28;20084;-64
2024/01/01 00:39:44;;;;;;;;;;;;;;;0.58;66.90;94235.94;5016652;28;20301;-65
2024/01/01 00:42:10;;;;;;;;;;;;;;;1.42;63.97;94255.72;5016389;28;19928;-65
2024/01/01 00:44:35;;;;;;;;;;;;;;;1.85;62.89;94227.78;5015915;28;19963;-65
2024/01/01 00:47:00;;;;;;;;;;;;;;;1.68;62.16;94236.56;5016285;28;20410;-63
2024/01/01 00:49:25;;;;;;;;;;;;;;;1.16;64.17;94246.84;5018811;28;20002;-64
2024/01/01 00:51:51;;;;;;;;;;;;;;;1.07;64.45;94253.03;5016138;28;19927;-65
2024/01/01 00:54:16;;;;;;;;;;;;;;;1.04;63.75;94251.53;5012029;28;20427;-63
2024/01/01 00:56:41;;;;;;;;;;;;;;;0.88;64.54;94240.94;5015825;28;19932;-63
2024/01/01 00:59:06;;;;;;;;;;;;;;;0.93;65.03;94243.91;5016692;28;20415;-63
2024/01/01 01:01:32;;;;;;;;;;;;;;;1.14;63.06;94248.81;5015604;28;19983;-65
2024/01/01 01:03:57;;;;;;;;;;;;;;;1.81;61.53;94249.25;5016031;28;19960;-64
2024/01/01 01:06:22;;;;;;;;;;;;;;;2.49;59.73;94247.50;5015647;28;19936;-64
2024/01/01 01:08:48;;;;;;;;;;;;;;;2.19;60.00;94262.03;5015874;28;20450;-64
2024/01/01 01:11:14;;;;;;;;;;;;;;;1.76;61.64;94254.97;5009955;28;19967;-63
2024/01/01 01:13:39;;;;;;;;;;;;;;;1.85;61.17;94254.03;5011285;28;19925;-65
2024/01/01 01:16:04;;;;;;;;;;;;;;;1.14;62.83;94255.84;5012543;28;20046;-65
2024/01/01 01:18:29;;;;;;;;;;;;;;;1.80;61.51;94247.59;5015316;28;20294;-66
2024/01/01 01:20:55;;;;;;;;;;;;;;;1.30;62.13;94252.53;5013795;28;19935;-65
2024/01/01 01:23:20;;;;;;;;;;;;;;;0.72;64.58;94279.91;5017984;28;20024;-64
2024/01/01 01:25:45;;;;;;;;;;;;;;;1.15;63.58;94266.19;5014624;28;20544;-63
2024/01/01 01:28:10;;;;;;;;;;;;;;;0.74;64.76;94261.44;5014093;28;20032;-61
2024/01/01 01:30:36;;;;;;;;;;;;;;;0.64;64.43;94268.53;5014817;28;19917;-65
2024/01/01 01:33:01;;;;;;;;;;;;;;;0.77;63.99;94273.41;5014916;28;20570;-66
2024/01/01 01:35:26;;;;;;;;;;;;;;;1.44;62.14;94283.47;5015821;28;19967;-66
2024/01/01 01:37:52;;;;;;;;;;;;;;;1.34;62.22;94278.31;5015634;28;19931;-65
2024/01/01 01:40:17;;;;;;;;;;;;;;;0.15;65.56;94299.31;5016089;28;20398;-66
2024/01/01 01:42:48;;;;;;;;;;;;;;;1.37;62.83;94280.59;5016175;28;20501;-65
2024/01/01 01:45:13;;;;;;;;;;;;;;;1.22;62.49;94274.25;5012964;28;19929;-65
2024/01/01 01:47:39;;;;;;;;;;;;;;;0.80;63.93;94281.81;5015757;28;20577;-65
2024/01/01 01:50:06;;;;;;;;;;;;;;;0.81;64.07;94288.69;5015440;28;19921;-66
2024/01/01 01:52:32;;;;;;;;;;;;;;;1.02;62.82;94269.19;5008947;28;19975;-65
2024/01/01 01:54:57;;;;;;;;;;;;;;;0.91;63.20;94293.03;5014483;28;20010;-65
2024/01/01 01:57:22;;;;;;;;;;;;;;;0.81;63.02;94282.63;5015801;28;20047;-65
2024/01/01 01:59:47;;;;;;;;;;;;;;;0.95;62.99;94270.78;5014248;28;19917;-66
2024/01/01 02:02:13;;;;;;;;;;;;;;;0.85;62.90;94269.06;5015441;28;19928;-66
2024/01/01 02:04:38;;;;;;;;;;;;;;;0.45;63.35;94263.28;5013400;28;19921;-66
2024/01/01 02:07:04;;;;;;;;;;;;;;;0.96;62.27;94264.59;5014979;28;19979;-66
2024/01/01 02:09:30;;;;;;;;;;;;;;;-0.06;66.58;94270.75;5011738;28;19932;-66
2024/01/01 02:11:55;;;;;;;;;;;;;;;0.45;64.75;94257.25;5015725;28;19975;-66
2024/01/01 02:14:21;;;;;;;;;;;;;;;0.20;65.13;94249.94;5011703;28;19971;-65
2024/01/01 02:16:47;;;;;;;;;;;;;;;0.56;64.68;94257.03;5014078;28;19982;-65
2024/01/01 02:19:12;;;;;;;;;;;;;;;0.63;64.21;94254.63;5015670;28;19960;-65
2024/01/01 02:21:37;;;;;;;;;;;;;;;0.89;63.77;94240.75;5012802;28;19971;-66
2024/01/01 02:24:03;;;;;;;;;;;;;;;0.93;62.79;94229.03;5019094;28;19968;-65
2024/01/01 02:26:28;;;;;;;;;;;;;;;-0.00;65.39;94245.81;5018585;28;19932;-66
2024/01/01 02:28:53;;;;;;;;;;;;;;;-0.35;67.17;94245.53;5018474;28;20049;-65
2024/01/01 02:31:18;;;;;;;;;;;;;;;1.00;62.88;94238.88;5018570;28;20006;-66
2024/01/01 02:33:44;;;;;;;;;;;;;;;-0.03;66.04;94249.50;5019003;28;20067;-65
2024/01/01 02:36:09;;;;;;;;;;;;;;;0.25;66.40;94240.81;5018103;28;20337;-66
2024/01/01 02:38:34;;;;;;;;;;;;;;;0.54;64.03;94245.88;5018212;28;19925;-66
2024/01/01 02:41:00;;;;;;;;;;;;;;;0.87;62.88;94232.22;5016465;28;19987;-65
2024/01/01 02:43:25;;;;;;;;;;;;;;;0.50;63.93;94238.44;5015361;28;20099;-66
2024/01/01 02:45:51;;;;;;;;;;;;;;;0.38;64.36;94245.72;5023438;28;20040;-63
2024/01/01 02:48:16;;;;;;;;;;;;;;;-0.13;64.76;94251.38;5021082;28;20298;-63
2024/01/01 02:50:41;;;;;;;;;;;;;;;0.62;62.52;94250.38;5019131;28;19921;-63
2024/01/01 02:53:06;;;;;;;;;;;;;;;-0.32;64.62;94242.63;5014885;28;19983;-63
2024/01/01 02:55:32;;;;;;;;;;;;;;;0.54;63.48;94247.66;5018997;28;19925;-63
2024/01/01 02:57:57;;;;;;;;;;;;;;;0.22;64.11;94249.81;5017381;28;19923;-63
2024/01/01 03:00:22;;;;;;;;;;;;;;;0.72;62.46;94258.97;5018821;28;19961;-62
2024/01/01 03:02:49;;;;;;;;;;;;;;;1.28;60.16;94244.81;5020237;28;20464;-63
2024/01/01 03:05:14;;;;;;;;;;;;;;;0.91;62.04;94246.69;5018763;28;19925;-63
2024/01/01 03:07:39;;;;;;;;;;;;;;;0.81;62.54;94249.38;5020841;28;20624;-64
2024/01/01 03:10:05;;;;;;;;;;;;;;;1.17;60.97;94255.56;5019994;28;19963;-63
2024/01/01 03:12:30;;;;;;;;;;;;;;;-0.01;63.63;94260.66;5020645;28;19933;-63
2024/01/01 03:14:55;;;;;;;;;;;;;;;-0.06;65.59;94257.69;5018206;28;19932;-63
2024/01/01 03:17:21;;;;;;;;;;;;;;;0.88;61.11;94261.91;5014439;28;19931;-63
2024/01/01 03:19:46;;;;;;;;;;;;;;;1.03;61.13;94252.53;5016432;28;19971;-63
2024/01/01 03:22:11;;;;;;;;;;;;;;;1.49;59.90;94233.13;5020648;28;20140;-63
2024/01/01 03:24:36;;;;;;;;;;;;;;;1.68;58.81;94241.78;5021658;28;19940;-64
2024/01/01 03:27:01;;;;;;;;;;;;;;;1.45;59.45;94243.13;5021884;28;19929;-63
2024/01/01 03:29:27;;;;;;;;;;;;;;;0.54;62.25;94235.38;5017691;28;20039;-63
2024/01/01 03:31:52;;;;;;;;;;;;;;;1.15;61.35;94234.72;5017708;28;20039;-63
2024/01/01 03:34:17;;;;;;;;;;;;;;;1.31;59.45;94235.81;5018884;28;19987;-63
2024/01/01 03:36:43;;;;;;;;;;;;;;;0.39;62.74;94248.19;5019506;28;20402;-63
2024/01/01 03:39:08;;;;;;;;;;;;;;;0.45;62.17;94247.56;5018135;28;20416;-63
2024/01/01 03:41:33;;;;;;;;;;;;;;;0.14;64.61;94254.94;5021507;28;19921;-63
2024/01/01 03:43:58;;;;;;;;;;;;;;;0.88;61.83;94241.72;5019833;28;19925;-63
2024/01/01 03:46:24;;;;;;;;;;;;;;;0.64;63.06;94244.97;5017596;28;20318;-63
2024/01/01 03:48:49;;;;;;;;;;;;;;;1.23;60.24;94257.56;5017407;28;20394;-63
2024/01/01 03:51:14;;;;;;;;;;;;;;;0.76;63.19;94248.19;5018309;28;20046;-63
2024/01/01 03:53:40;;;;;;;;;;;;;;;1.21;60.73;94244.63;5017656;28;19986;-63
2024/01/01 03:56:05;;;;;;;;;;;;;;;0.80;62.29;94245.13;5021114;28;20559;-66
2024/01/01 03:58:30;;;;;;;;;;;;;;;0.16;63.12;94259.06;5017163;28;19967;-67
2024/01/01 04:00:56;;;;;;;;;;;;;;;0.35;63.91;94244.22;5016503;28;19925;-65
2024/01/01 04:03:21;;;;;;;;;;;;;;;0.57;63.74;94242.97;5017524;28;20313;-66
2024/01/01 04:05:46;;;;;;;;;;;;;;;0.42;64.05;94244.44;5017561;28;19974;-66
2024/01/01 04:08:11;;;;;;;;;;;;;;;0.04;64.95;94258.44;5023833;28;20046;-67
2024/01/01 04:10:37;;;;;;;;;;;;;;;-0.99;69.78;94265.19;5017054;28;19951;-65
2024/01/01 04:13:02;;;;;;;;;;;;;;;-0.00;66.19;94237.94;5017635;28;20717;-65
2024/01/01 04:15:28;;;;;;;;;;;;;;;0.40;64.21;94246.38;5014729;28;19960;-65
2024/01/01 04:17:53;;;;;;;;;;;;;;;-0.08;65.73;94244.72;5017159;28;20292;-67
2024/01/01 04:20:18;;;;;;;;;;;;;;;-0.36;67.32;94249.94;5015249;28;19929;-66
2024/01/01 04:22:45;;;;;;;;;;;;;;;-0.18;66.42;94238.72;5015425;28;19971;-66
2024/01/01 04:25:10;;;;;;;;;;;;;;;0.23;65.09;94253.22;5015310;28;20007;-66
2024/01/01 04:27:35;;;;;;;;;;;;;;;0.53;64.59;94251.25;5014532;28;20385;-64
2024/01/01 04:30:03;;;;;;;;;;;;;;;0.16;64.75;94248.59;5015659;28;19968;-65
2024/01/01 04:32:29;;;;;;;;;;;;;;;-0.33;66.81;94254.88;5015639;28;20409;-67
2024/01/01 04:34:55;;;;;;;;;;;;;;;0.84;63.02;94248.25;5016101;28;19951;-65
2024/01/01 04:37:20;;;;;;;;;;;;;;;0.32;63.76;94271.53;5014880;28;20824;-65
2024/01/01 04:39:45;;;;;;;;;;;;;;;-0.31;65.68;94276.50;5017342;28;19925;-66
2024/01/01 04:42:10;;;;;;;;;;;;;;;-0.34;67.16;94262.88;5015134;28;20013;-65
2024/01/01 04:44:36;;;;;;;;;;;;;;;0.90;62.76;94265.16;5016134;28;20498;-66
2024/01/01 04:47:02;;;;;;;;;;;;;;;0.76;62.92;94261.28;5015038;28;19936;-67
2024/01/01 04:49:27;;;;;;;;;;;;;;;0.59;63.63;94263.75;5015561;28;19948;-67
2024/01/01 04:51:52;;;;;;;;;;;;;;;0.10;64.01;94274.53;5015429;28;19925;-67
2024/01/01 04:54:18;;;;;;;;;;;;;;;0.52;63.84;94273.19;5014328;28;19925;-65
2024/01/01 04:56:43;;;;;;;;;;;;;;;0.17;64.85;94275.59;5015840;28;19929;-65
2024/01/01 04:59:08;;;;;;;;;;;;;;;-0.24;65.92;94287.19;5014462;28;20382;-64
2024/01/01 05:01:34;;;;;;;;;;;;;;;0.24;63.68;94275.84;5013645;28;20134;-66
2024/01/01 05:03:59;;;;;;;;;;;;;;;0.05;65.36;94274.97;5015984;28;19925;-66
2024/01/01 05:06:24;;;;;;;;;;;;;;;0.51;64.22;94268.94;5014671;28;20340;-63
2024/01/01 05:08:49;;;;;;;;;;;;;;;0.23;64.32;94297.72;5016513;28;20261;-64
2024/01/01 05:11:15;;;;;;;;;;;;;;;-0.39;66.80;94265.09;5016673;28;19925;-65
2024/01/01 05:13:40;;;;;;;;;;;;;;;-0.29;66.51;94275.53;5013732;28;19928;-64
2024/01/01 05:16:09;;;;;;;;;;;;;;;-0.61;67.13;94288.81;5014833;28;19927;-65
2024/01/01 05:18:35;;;;;;;;;;;;;;;-0.26;67.14;94280.47;5016967;28;19918;-65
2024/01/01 05:21:00;;;;;;;;;;;;;;;-0.13;65.99;94285.38;5013665;28;19955;-65
2024/01/01 05:23:25;;;;;;;;;;;;;;;-0.01;65.24;94271.13;5016067;28;19921;-63
2024/01/01 05:25:50;;;;;;;;;;;;;;;0.34;64.58;94287.91;5016308;28;19932;-63
2024/01/01 05:28:16;;;;;;;;;;;;;;;0.02;65.21;94288.34;5014106;28;19990;-65
2024/01/01 05:30:41;;;;;;;;;;;;;;;0.08;65.35;94293.81;5015583;28;19914;-65
2024/01/01 05:33:06;;;;;;;;;;;;;;;-0.52;67.47;94291.56;5015964;28;20006;-65
2024/01/01 05:35:31;;;;;;;;;;;;;;;-0.35;67.03;94305.69;5016578;28;19974;-64
2024/01/01 05:37:57;;;;;;;;;;;;;;;-0.44;67.12;94299.50;5016712;28;19917;-64
2024/01/01 05:40:22;;;;;;;;;;;;;;;-0.26;66.79;94293.56;5016190;28;19921;-64
2024/01/01 05:42:47;;;;;;;;;;;;;;;-0.34;66.70;94300.31;5014932;28;19935;-65
2024/01/01 05:45:12;;;;;;;;;;;;;;;-0.80;67.54;94299.31;5016095;28;20400;-65
2024/01/01 05:47:38;;;;;;;;;;;;;;;-0.24;66.61;94291.63;5016508;28;19932;-65
2024/01/01 05:50:03;;;;;;;;;;;;;;;-0.05;65.70;94288.09;5016087;28;20407;-64
2024/01/01 05:52:29;;;;;;;;;;;;;;;-0.25;65.83;94288.19;5015442;28;19921;-64
2024/01/01 05:54:54;;;;;;;;;;;;;;;-0.09;65.90;94291.97;5023256;28;19917;-65
2024/01/01 05:57:19;;;;;;;;;;;;;;;0.18;64.96;94292.97;5019353;28;19925;-64
2024/01/01 05:59:44;;;;;;;;;;;;;;;0.26;64.32;94300.06;5020262;28;19921;-64
2024/01/01 06:02:10;;;;;;;;;;;;;;;-0.65;67.22;94302.34;5020140;28;20147;-64
2024/01/01 06:04:35;;;;;;;;;;;;;;;-0.12;65.53;94297.50;5019430;28;20307;-64
2024/01/01 06:07:00;;;;;;;;;;;;;;;0.17;64.83;94302.59;5018957;28;19976;-65
2024/01/01 06:09:26;;;;;;;;;;;;;;;0.16;64.36;94289.66;5019785;28;19921;-66
2024/01/01 06:11:51;;;;;;;;;;;;;;;-0.10;66.12;94304.22;5020132;28;20331;-64
2024/01/01 06:14:16;;;;;;;;;;;;;;;-0.31;66.41;94300.03;5016747;28;19996;-62
2024/01/01 06:16:45;;;;;;;;;;;;;;;-0.09;66.28;94297.22;5017502;28;19925;-66
2024/01/01 06:19:10;;;;;;;;;;;;;;;-0.33;66.13;94314.22;5020261;28;19921;-65
2024/01/01 06:21:35;;;;;;;;;;;;;;;-0.62;67.61;94313.31;5017530;28;19932;-66
2024/01/01 06:24:01;;;;;;;;;;;;;;;-0.86;69.86;94303.31;5016845;28;20106;-65
2024/01/01 06:26:26;;;;;;;;;;;;;;;-0.76;69.25;94304.13;5018120;28;20101;-65
2024/01/01 06:28:51;;;;;;;;;;;;;;;-0.98;69.31;94282.50;5019908;28;20004;-66
2024/01/01 06:31:17;;;;;;;;;;;;;;;-0.14;67.17;94302.06;5020583;28;19923;-66
2024/01/01 06:33:42;;;;;;;;;;;;;;;-0.70;67.95;94307.97;5019833;28;20301;-66
2024/01/01 06:36:08;;;;;;;;;;;;;;;-0.89;68.86;94307.03;5016498;28;19933;-66
2024/01/01 06:38:34;;;;;;;;;;;;;;;-0.46;67.77;94312.75;5018309;28;20034;-66
2024/01/01 06:41:00;;;;;;;;;;;;;;;-0.21;66.89;94320.09;5018732;28;19970;-66
2024/01/01 06:43:25;;;;;;;;;;;;;;;-0.45;67.45;94322.25;5016759;28;19935;-65
2024/01/01 06:45:50;;;;;;;;;;;;;;;-0.03;65.72;94332.44;5017556;28;19917;-66
2024/01/01 06:48:15;;;;;;;;;;;;;;;-0.28;66.62;94337.31;5019039;28;20037;-65
2024/01/01 06:50:41;;;;;;;;;;;;;;;0.10;65.45;94332.94;5019653;28;20028;-66
2024/01/01 06:53:06;;;;;;;;;;;;;;;0.10;65.00;94335.53;5014659;28;20473;-66
2024/01/01 06:55:33;;;;;;;;;;;;;;;-0.27;65.63;94334.56;5019432;28;19947;-65
2024/01/01 06:57:59;;;;;;;;;;;;;;;-0.83;66.00;94324.78;5019074;28;19925;-66
2024/01/01 07:00:24;;;;;;;;;;;;;;;-0.59;66.86;94346.19;5018350;28;19929;-66
2024/01/01 07:02:50;;;;;;;;;;;;;;;-0.77;66.77;94341.69;5019509;28;19927;-66
2024/01/01 07:05:15;;;;;;;;;;;;;;;-0.21;65.77;94367.19;5017078;28;19952;-66
2024/01/01 07:07:40;;;;;;;;;;;;;;;-0.23;65.70;94356.84;5018732;28;19925;-66
2024/01/01 07:10:06;;;;;;;;;;;;;;;-0.84;66.63;94367.53;5018484;28;19952;-66
2024/01/01 07:12:31;;;;;;;;;;;;;;;-0.21;65.15;94341.84;5018532;28;20348;-65
2024/01/01 07:14:56;;;;;;;;;;;;;;;0.05;63.83;94343.00;5015428;28;20004;-66
2024/01/01 07:17:21;;;;;;;;;;;;;;;-0.59;66.00;94357.50;5018077;28;19936;-66
2024/01/01 07:19:47;;;;;;;;;;;;;;;-0.49;65.69;94381.03;5015516;28;20098;-66
2024/01/01 07:22:12;;;;;;;;;;;;;;;-0.98;66.68;94367.94;5015991;28;19935;-66
2024/01/01 07:24:37;;;;;;;;;;;;;;;0.12;64.08;94374.66;5018337;28;20407;-66
2024/01/01 07:27:03;;;;;;;;;;;;;;;0.09;63.63;94362.69;5018039;28;19970;-65
2024/01/01 07:29:28;;;;;;;;;;;;;;;-0.07;64.32;94363.28;5018359;28;19932;-62
2024/01/01 07:31:54;;;;;;;;;;;;;;;0.14;63.62;94370.94;5018854;28;19959;-63
2024/01/01 07:34:19;;;;;;;;;;;;;;;0.17;63.38;94367.22;5018389;28;20589;-63
2024/01/01 07:36:45;;;;;;;;;;;;;;;-0.08;64.21;94375.56;5021031;28;19936;-63
2024/01/01 07:39:10;;;;;;;;;;;;;;;0.11;64.00;94383.50;5018169;28;19921;-64
2024/01/01 07:41:36;;;;;;;;;;;;;;;0.44;62.38;94373.41;5017105;28;20362;-63
2024/01/01 07:44:01;;;;;;;;;;;;;;;0.41;62.33;94366.69;5017729;28;19943;-63
2024/01/01 07:46:26;;;;;;;;;;;;;;;0.46;62.97;94371.50;5016283;28;20036;-63
2024/01/01 07:48:51;;;;;;;;;;;;;;;0.06;63.04;94368.22;5017801;28;19925;-63
2024/01/01 07:51:17;;;;;;;;;;;;;;;0.11;63.26;94370.41;5018648;28;20467;-63
2024/01/01 07:53:42;;;;;;;;;;;;;;;-0.40;65.70;94368.06;5018595;28;19937;-63
2024/01/01 07:56:07;;;;;;;;;;;;;;;-0.37;65.39;94384.28;5017390;28;19963;-63
2024/01/01 07:58:33;;;;;;;;;;;;;;;0.08;64.02;94393.28;5017535;28;19932;-63
2024/01/01 08:00:58;;;;;;;;;;;;;;;-0.55;66.45;94383.38;5017565;28;19921;-63
2024/01/01 08:03:23;;;;;;;;;;;;;;;-0.67;66.97;94387.91;5016723;28;19975;-63
2024/01/01 08:05:49;;;;;;;;;;;;;;;-0.70;65.68;94389.81;5017549;28;19921;-63
2024/01/01 08:08:14;;;;;;;;;;;;;;;-0.57;66.94;94388.72;5015548;28;19925;-62
2024/01/01 08:10:39;;;;;;;;;;;;;;;0.24;63.90;94391.84;5020310;28;19925;-63
2024/01/01 08:13:05;;;;;;;;;;;;;;;-0.08;64.92;94380.81;5017377;28;19924;-63
2024/01/01 08:15:30;;;;;;;;;;;;;;;0.34;63.79;94382.16;5015153;28;20016;-63
2024/01/01 08:17:55;;;;;;;;;;;;;;;-0.08;65.61;94387.81;5016085;28;19940;-63
2024/01/01 08:20:20;;;;;;;;;;;;;;;-0.15;66.11;94381.50;5015272;28;19932;-63
2024/01/01 08:22:46;;;;;;;;;;;;;;;-0.49;67.04;94398.50;5017789;28;20381;-63
2024/01/01 08:25:11;;;;;;;;;;;;;;;-0.18;65.79;94388.69;5016500;28;19925;-63
2024/01/01 08:27:36;;;;;;;;;;;;;;;-0.15;65.89;94376.25;5017650;28;19996;-62
2024/01/01 08:30:02;;;;;;;;;;;;;;;-0.09;66.43;94397.47;5016977;28;20103;-63
2024/01/01 08:32:27;;;;;;;;;;;;;;;-0.61;67.40;94384.75;5017494;28;20060;-62
2024/01/01 08:34:52;;;;;;;;;;;;;;;0.08;66.15;94377.56;5017419;28;20066;-63
2024/01/01 08:37:19;;;;;;;;;;;;;;;-0.25;66.25;94411.13;5017148;28;19960;-63
2024/01/01 08:39:44;;;;;;;;;;;;;;;-0.34;66.64;94394.47;5016343;28;19992;-66
2024/01/01 08:42:09;;;;;;;;;;;;;;;-0.36;67.10;94385.97;5017065;28;20027;-66
2024/01/01 08:44:35;;;;;;;;;;;;;;;-0.03;66.84;94405.72;5015621;28;20062;-65
2024/01/01 08:47:00;;;;;;;;;;;;;;;-1.09;70.38;94426.34;5017083;28;19997;-66
2024/01/01 08:49:25;;;;;;;;;;;;;;;-1.40;71.60;94415.97;5016545;28;20578;-66
2024/01/01 08:51:50;;;;;;;;;;;;;;;-1.10;69.95;94412.47;5017010;28;19925;-65
2024/01/01 08:54:16;;;;;;;;;;;;;;;-0.66;69.69;94407.84;5012129;28;20023;-65
2024/01/01 08:56:42;;;;;;;;;;;;;;;-0.89;69.15;94422.00;5016787;28;19931;-66
2024/01/01 08:59:09;;;;;;;;;;;;;;;-0.77;70.01;94417.50;5017074;28;19921;-66
2024/01/01 09:01:35;;;;;;;;;;;;;;;-0.89;70.35;94431.63;5018910;28;19936;-65
2024/01/01 09:04:04;;;;;;;;;;;;;;;-1.23;73.39;94425.78;5016809;28;19924;-65
2024/01/01 09:06:29;;;;;;;;;;;;;;;-1.06;72.39;94436.53;5016478;28;20032;-65
2024/01/01 09:08:54;;;;;;;;;;;;;;;-1.36;72.10;94427.78;5014856;28;20062;-66
2024/01/01 09:11:20;;;;;;;;;;;;;;;-0.38;70.40;94424.50;5017765;28;19928;-66
2024/01/01 09:13:45;;;;;;;;;;;;;;;-0.12;68.83;94430.94;5013887;28;19972;-66
2024/01/01 09:16:10;;;;;;;;;;;;;;;-0.96;71.35;94455.72;5016158;28;19957;-66
2024/01/01 09:18:35;;;;;;;;;;;;;;;-0.23;70.05;94432.72;5021509;28;19995;-65
2024/01/01 09:21:01;;;;;;;;;;;;;;;-0.70;71.24;94438.69;5013854;28;20607;-65
2024/01/01 09:23:27;;;;;;;;;;;;;;;-1.32;73.31;94475.38;5014525;28;19999;-65
2024/01/01 09:25:54;;;;;;;;;;;;;;;-0.61;73.10;94465.81;5012506;28;19929;-65
2024/01/01 09:28:19;;;;;;;;;;;;;;;-0.79;72.46;94476.91;5015676;28;19925;-65
2024/01/01 09:30:45;;;;;;;;;;;;;;;-0.67;73.42;94455.88;5016708;28;20316;-65
2024/01/01 09:33:11;;;;;;;;;;;;;;;-0.66;74.30;94491.50;5016124;28;20138;-65
2024/01/01 09:35:36;;;;;;;;;;;;;;;-0.75;74.72;94478.28;5016106;28;19936;-65
2024/01/01 09:38:03;;;;;;;;;;;;;;;-2.21;81.19;94467.09;5013516;28;20054;-65
2024/01/01 09:40:28;;;;;;;;;;;;;;;-2.04;81.08;94474.34;5015326;28;20770;-66
2024/01/01 09:42:53;;;;;;;;;;;;;;;-1.67;82.96;94485.28;5015890;28;19936;-66
2024/01/01 09:45:18;;;;;;;;;;;;;;;-1.75;81.39;94506.78;5016319;28;19972;-65
2024/01/01 09:47:44;;;;;;;;;;;;;;;-1.36;79.08;94472.19;5015644;28;20055;-65
2024/01/01 09:50:09;;;;;;;;;;;;;;;-2.00;83.36;94490.56;5014951;28;19925;-63
2024/01/01 09:52:35;;;;;;;;;;;;;;;-2.22;84.48;94496.72;5010715;28;20338;-64
2024/01/01 09:55:00;;;;;;;;;;;;;;;-2.34;88.28;94498.56;5015034;28;19925;-63
2024/01/01 09:57:26;;;;;;;;;;;;;;;-2.12;86.11;94502.84;5014765;28;20100;-63
2024/01/01 09:59:51;;;;;;;;;;;;;;;-2.11;87.43;94509.69;5015377;28;19925;-63
2024/01/01 10:02:17;;;;;;;;;;;;;;;-1.34;84.34;94501.63;5015892;28;19933;-65
2024/01/01 10:04:42;;;;;;;;;;;;;;;-2.05;86.18;94509.22;5015975;28;19948;-62
2024/01/01 10:07:08;;;;;;;;;;;;;;;-1.84;85.60;94503.16;5015210;28;20302;-63
2024/01/01 10:09:33;;;;;;;;;;;;;;;-0.70;80.65;94506.66;5012840;28;19925;-63
2024/01/01 10:12:06;;;;;;;;;;;;;;;-1.31;82.96;94503.13;5016855;28;19919;-62
2024/01/01 10:14:31;;;;;;;;;;;;;;;-0.97;80.73;94515.91;5009952;28;20478;-62
2024/01/01 10:17:09;;;;;;;;;;;;;;;-2.15;82.36;94510.91;5013369;28;20000;-64
2024/01/01 10:19:48;;;;;;;;;;;;;;;-1.56;81.69;94510.47;5016122;28;20513;-63
2024/01/01 10:22:13;;;;;;;;;;;;;;;-1.14;81.44;94527.81;5010569;28;19921;-62
2024/01/01 10:24:38;;;;;;;;;;;;;;;-1.19;80.99;94517.75;5015596;28;20298;-63
2024/01/01 10:27:03;;;;;;;;;;;;;;;-1.80;80.83;94509.75;5015433;28;20008;-64
2024/01/01 10:29:29;;;;;;;;;;;;;;;-0.76;78.94;94510.63;5014049;28;20024;-63
2024/01/01 10:31:54;;;;;;;;;;;;;;;-0.93;79.35;94509.47;5016148;28;19963;-64
2024/01/01 10:34:19;;;;;;;;;;;;;;;-1.03;82.02;94509.44;5013615;28;19925;-63
2024/01/01 10:36:45;;;;;;;;;;;;;;;-0.75;80.89;94504.44;5013244;28;19952;-63
2024/01/01 10:39:10;;;;;;;;;;;;;;;-0.77;78.93;94498.53;5016104;28;19921;-63
2024/01/01 10:41:36;;;;;;;;;;;;;;;-0.79;77.80;94510.06;5017388;28;20030;-62
2024/01/01 10:44:08;;;;;;;;;;;;;;;-0.67;78.00;94510.78;5013822;28;19926;-60
2024/01/01 10:46:34;;;;;;;;;;;;;;;-1.18;79.94;94516.81;5018068;28;19933;-64
2024/01/01 10:49:00;;;;;;;;;;;;;;;-1.10;80.64;94553.56;5018825;28;19963;-61
2024/01/01 10:51:44;;;;;;;;;;;;;;;-1.16;80.23;94521.91;5018025;28;20020;-60
2024/01/01 10:54:16;;;;;;;;;;;;;;;-0.94;79.56;94518.28;5016427;28;19925;-64
2024/01/01 10:57:02;;;;;;;;;;;;;;;-0.62;76.87;94519.03;5018980;28;19936;-64
2024/01/01 10:59:31;;;;;;;;;;;;;;;-0.89;77.40;94531.78;5012220;28;20251;-63
2024/01/01 11:01:56;;;;;;;;;;;;;;;-1.43;80.70;94536.34;5017229;28;19917;-64
2024/01/01 11:04:22;;;;;;;;;;;;;;;-0.99;79.60;94526.50;5016649;28;19921;-65
2024/01/01 11:06:47;;;;;;;;;;;;;;;-0.97;79.32;94534.19;5019120;28;19928;-63
2024/01/01 11:09:19;;;;;;;;;;;;;;;-1.39;78.78;94535.94;5015484;28;19932;-64
2024/01/01 11:11:48;;;;;;;;;;;;;;;-0.79;77.79;94530.97;5013239;28;20587;-63
2024/01/01 11:14:32;;;;;;;;;;;;;;;-1.19;79.99;94532.63;5014246;28;19925;-62
2024/01/01 11:17:02;;;;;;;;;;;;;;;-1.23;80.27;94556.38;5018649;28;19929;-64
2024/01/01 11:19:37;;;;;;;;;;;;;;;-1.18;80.92;94544.72;5017893;28;19991;-63
2024/01/01 11:22:18;;;;;;;;;;;;;;;-0.40;78.07;94540.69;5014579;28;19925;-62
2024/01/01 11:24:45;;;;;;;;;;;;;;;-1.14;80.81;94565.22;5018667;28;20333;-63
2024/01/01 11:27:25;;;;;;;;;;;;;;;-0.96;80.95;94557.63;5018598;28;20025;-62
2024/01/01 11:29:51;;;;;;;;;;;;;;;-0.57;78.22;94545.63;5013301;28;19932;-63
2024/01/01 11:32:17;;;;;;;;;;;;;;;-0.70;78.19;94556.31;5018096;28;19925;-64
2024/01/01 11:34:42;;;;;;;;;;;;;;;-0.39;77.63;94550.16;5018511;28;20014;-65
2024/01/01 11:37:07;;;;;;;;;;;;;;;-0.80;79.02;94558.91;5018088;28;20509;-64
2024/01/01 11:39:32;;;;;;;;;;;;;;;-1.03;79.15;94556.47;5017276;28;19925;-63
2024/01/01 11:41:58;;;;;;;;;;;;;;;-0.53;78.11;94554.84;5018408;28;20002;-64
2024/01/01 11:44:25;;;;;;;;;;;;;;;-0.51;77.63;94547.69;5017115;28;19925;-64
2024/01/01 11:46:51;;;;;;;;;;;;;;;-0.37;78.49;94551.69;5018206;28;19929;-63
2024/01/01 11:49:17;;;;;;;;;;;;;;;-0.46;77.93;94558.56;5017388;28;20175;-62
2024/01/01 11:51:52;;;;;;;;;;;;;;;0.05;75.70;94562.88;5017460;28;20039;-63
2024/01/01 11:54:17;;;;;;;;;;;;;;;-0.46;76.25;94557.75;5015992;28;20421;-63
2024/01/01 11:56:46;;;;;;;;;;;;;;;-0.11;73.68;94550.31;5016399;28;19922;-62
2024/01/01 11:59:11;;;;;;;;;;;;;;;-0.45;76.57;94549.75;5017227;28;20028;-63
2024/01/01 12:01:37;;;;;;;;;;;;;;;-0.58;76.00;94557.00;5017968;28;20036;-64
2024/01/01 12:04:05;;;;;;;;;;;;;;;-0.91;79.16;94562.47;5017608;28;20275;-64
2024/01/01 12:06:30;;;;;;;;;;;;;;;-0.74;77.77;94568.81;5016033;28;19925;-64
2024/01/01 12:09:06;;;;;;;;;;;;;;;-0.87;78.80;94563.00;5016449;28;20598;-63
2024/01/01 12:11:31;;;;;;;;;;;;;;;-0.55;78.63;94554.13;5017554;28;20191;-64
2024/01/01 12:13:56;;;;;;;;;;;;;;;-0.50;80.22;94556.34;5014177;28;20056;-63
2024/01/01 12:16:24;;;;;;;;;;;;;;;-0.90;80.47;94556.25;5017444;28;20397;-64
2024/01/01 12:18:59;;;;;;;;;;;;;;;-1.15;82.08;94565.34;5017458;28;20259;-62
2024/01/01 12:21:25;;;;;;;;;;;;;;;-1.31;81.93;94548.38;5016611;28;19929;-63
2024/01/01 12:24:01;;;;;;;;;;;;;;;-1.08;82.05;94556.03;5017928;28;20075;-64
2024/01/01 12:26:26;;;;;;;;;;;;;;;-1.69;83.84;94562.88;5018288;28;20064;-62
2024/01/01 12:29:10;;;;;;;;;;;;;;;-1.49;83.78;94555.97;5016832;28;20620;-64
2024/01/01 12:31:36;;;;;;;;;;;;;;;-1.11;82.37;94564.13;5012771;28;20206;-61
2024/01/01 12:34:01;;;;;;;;;;;;;;;-1.15;82.87;94560.94;5017903;28;19921;-63
2024/01/01 12:36:27;;;;;;;;;;;;;;;-0.91;81.06;94559.84;5017200;28;19929;-65
2024/01/01 12:38:52;;;;;;;;;;;;;;;-0.67;79.95;94563.06;5016893;28;19983;-64
2024/01/01 12:41:19;;;;;;;;;;;;;;;-0.28;78.21;94557.91;5017728;28;20371;-65
2024/01/01 12:43:44;;;;;;;;;;;;;;;-0.37;77.64;94571.81;5018680;28;20441;-65